createdAt,value
2023-05-09T00:01:36.354Z,10.67
2023-05-09T00:04:03.642Z,10.65
2023-05-09T00:06:30.774Z,10.68
2023-05-09T00:08:57.938Z,10.69
2023-05-09T00:11:25.065Z,10.70
2023-05-09T00:13:52.153Z,10.69
2023-05-09T00:16:20.839Z,10.68
2023-05-09T00:18:47.869Z,10.65
2023-05-09T00:21:14.910Z,10.64
2023-05-09T00:23:41.896Z,10.62
2023-05-09T00:26:10.040Z,10.62
2023-05-09T00:28:37.683Z,10.62
2023-05-09T00:31:05.723Z,10.61
2023-05-09T00:33:32.734Z,10.57
2023-05-09T00:36:00.798Z,10.55
2023-05-09T00:38:28.715Z,10.55
2023-05-09T00:40:55.793Z,10.57
2023-05-09T00:43:22.951Z,10.55
2023-05-09T00:45:50.088Z,10.52
2023-05-09T00:48:17.256Z,10.49
2023-05-09T00:50:44.402Z,10.50
2023-05-09T00:53:11.416Z,10.49
2023-05-09T00:55:38.597Z,10.46
2023-05-09T00:58:05.668Z,10.42
2023-05-09T01:00:32.720Z,10.37
2023-05-09T01:02:59.877Z,10.32
2023-05-09T01:05:46.936Z,10.31
2023-05-09T01:08:21.471Z,10.29
2023-05-09T01:10:58.669Z,10.27
2023-05-09T01:13:33.859Z,10.27
2023-05-09T01:16:19.288Z,10.27
2023-05-09T01:18:50.315Z,10.27
2023-05-09T01:21:24.411Z,10.28
2023-05-09T01:23:59.626Z,10.30
2023-05-09T01:26:29.506Z,10.29
2023-05-09T01:29:26.955Z,10.31
2023-05-09T01:31:54.010Z,10.31
2023-05-09T01:34:20.980Z,10.31
2023-05-09T01:36:47.966Z,10.33
2023-05-09T01:39:15.020Z,10.36
2023-05-09T01:41:42.037Z,10.43
2023-05-09T01:44:11.348Z,10.44
2023-05-09T01:46:38.438Z,10.49
2023-05-09T01:49:06.000Z,10.49
2023-05-09T01:51:33.294Z,10.50
2023-05-09T01:54:00.328Z,10.53
2023-05-09T01:56:27.343Z,10.53
2023-05-09T01:58:55.822Z,10.59
2023-05-09T02:01:22.909Z,10.60
2023-05-09T02:03:52.690Z,10.64
2023-05-09T02:06:21.021Z,10.65
2023-05-09T02:08:48.300Z,10.61
2023-05-09T02:11:15.311Z,10.61
2023-05-09T02:13:42.263Z,10.61
2023-05-09T02:16:10.497Z,10.61
2023-05-09T02:18:37.528Z,10.56
2023-05-09T02:21:04.484Z,10.57
2023-05-09T02:23:31.475Z,10.45
2023-05-09T02:25:58.557Z,10.37
2023-05-09T02:28:26.020Z,10.32
2023-05-09T02:30:53.025Z,10.27
2023-05-09T02:33:20.002Z,10.19
2023-05-09T02:35:47.101Z,10.17
2023-05-09T02:38:14.194Z,10.20
2023-05-09T02:40:42.726Z,10.24
2023-05-09T02:43:09.966Z,10.18
2023-05-09T02:45:37.194Z,10.11
2023-05-09T02:48:06.896Z,10.15
2023-05-09T02:50:35.677Z,10.16
2023-05-09T02:53:02.716Z,10.14
2023-05-09T02:55:29.891Z,10.17
2023-05-09T02:58:09.256Z,10.12
2023-05-09T03:00:39.644Z,10.12
2023-05-09T03:03:06.910Z,10.15
2023-05-09T03:05:34.236Z,10.13
2023-05-09T03:08:01.194Z,10.11
2023-05-09T03:10:28.365Z,10.06
2023-05-09T03:12:56.123Z,10.00
2023-05-09T03:15:23.359Z,10.02
2023-05-09T03:17:50.484Z,9.99
2023-05-09T03:20:18.043Z,10.06
2023-05-09T03:22:45.068Z,10.04
2023-05-09T03:25:12.336Z,10.01
2023-05-09T03:27:39.570Z,10.05
2023-05-09T03:30:09.625Z,10.08
2023-05-09T03:32:36.899Z,10.09
2023-05-09T03:35:04.469Z,10.11
2023-05-09T03:37:32.526Z,10.19
2023-05-09T03:39:59.547Z,10.31
2023-05-09T03:42:26.797Z,10.42
2023-05-09T03:44:56.162Z,10.48
2023-05-09T03:47:23.533Z,10.49
2023-05-09T03:49:50.982Z,10.46
2023-05-09T03:52:20.189Z,10.52
2023-05-09T03:54:47.514Z,10.60
2023-05-09T03:57:15.265Z,10.71
2023-05-09T03:59:42.328Z,10.82
2023-05-09T04:02:09.880Z,10.95
2023-05-09T04:04:37.134Z,11.05
2023-05-09T04:07:04.646Z,11.17
2023-05-09T04:09:31.789Z,11.28
2023-05-09T04:11:59.213Z,11.33
2023-05-09T04:14:26.555Z,11.44
2023-05-09T04:16:53.775Z,11.50
2023-05-09T04:19:20.953Z,11.53
2023-05-09T04:21:48.179Z,11.58
2023-05-09T04:24:16.024Z,11.66
2023-05-09T04:26:44.354Z,11.71
2023-05-09T04:29:13.939Z,11.80
2023-05-09T04:31:41.521Z,11.89
2023-05-09T04:34:09.818Z,11.94
2023-05-09T04:36:37.824Z,11.87
2023-05-09T04:39:08.351Z,11.89
2023-05-09T04:41:38.322Z,11.95
2023-05-09T04:44:06.525Z,11.96
2023-05-09T04:46:34.266Z,11.93
2023-05-09T04:49:01.388Z,11.96
2023-05-09T04:51:28.414Z,12.04
2023-05-09T04:53:55.502Z,12.15
2023-05-09T04:56:26.031Z,12.24
2023-05-09T04:58:53.499Z,12.25
2023-05-09T05:01:20.616Z,12.23
2023-05-09T05:03:47.728Z,12.30
2023-05-09T05:06:14.926Z,12.38
2023-05-09T05:08:42.259Z,12.29
2023-05-09T05:11:11.048Z,12.25
2023-05-09T05:13:38.978Z,12.26
2023-05-09T05:16:06.649Z,12.25
2023-05-09T05:18:33.790Z,12.30
2023-05-09T05:21:01.133Z,12.33
2023-05-09T05:23:28.160Z,12.34
2023-05-09T05:25:55.670Z,12.39
2023-05-09T05:28:23.739Z,12.45
2023-05-09T05:30:51.403Z,12.48
2023-05-09T05:33:19.533Z,12.56
2023-05-09T05:35:47.939Z,12.62
2023-05-09T05:38:16.980Z,12.64
2023-05-09T05:40:45.554Z,12.68
2023-05-09T05:43:14.675Z,12.72
2023-05-09T05:45:43.408Z,12.80
2023-05-09T05:48:16.386Z,12.90
2023-05-09T05:50:43.866Z,13.04
2023-05-09T05:53:15.176Z,13.16
2023-05-09T05:55:42.329Z,13.26
2023-05-09T05:58:10.478Z,13.32
2023-05-09T06:00:37.860Z,13.39
2023-05-09T06:03:05.157Z,13.45
2023-05-09T06:05:44.257Z,13.55
2023-05-09T06:08:11.693Z,13.71
2023-05-09T06:10:38.721Z,13.75
2023-05-09T06:13:05.932Z,13.82
2023-05-09T06:15:33.579Z,13.90
2023-05-09T06:18:00.740Z,13.87
2023-05-09T06:20:28.041Z,13.87
2023-05-09T06:22:55.029Z,13.86
2023-05-09T06:25:22.296Z,13.94
2023-05-09T06:27:50.472Z,13.99
2023-05-09T06:30:25.419Z,13.98
2023-05-09T06:32:53.385Z,14.06
2023-05-09T06:35:21.891Z,14.13
2023-05-09T06:37:51.077Z,14.15
2023-05-09T06:40:19.884Z,14.10
2023-05-09T06:42:47.178Z,14.05
2023-05-09T06:45:15.056Z,14.01
2023-05-09T06:47:43.413Z,13.93
2023-05-09T06:50:10.493Z,13.85
2023-05-09T06:52:37.467Z,13.83
2023-05-09T06:55:04.999Z,13.93
2023-05-09T06:57:32.346Z,14.00
2023-05-09T07:00:02.628Z,13.99
2023-05-09T07:02:30.000Z,14.02
2023-05-09T07:04:57.022Z,14.14
2023-05-09T07:07:24.785Z,14.19
2023-05-09T07:09:55.248Z,14.23
2023-05-09T07:12:29.334Z,14.19
2023-05-09T07:14:56.504Z,14.08
2023-05-09T07:17:26.029Z,13.98
2023-05-09T07:19:53.933Z,13.92
2023-05-09T07:22:21.028Z,13.88
2023-05-09T07:24:48.092Z,13.97
2023-05-09T07:27:15.113Z,13.98
2023-05-09T07:29:42.081Z,14.10
2023-05-09T07:32:09.375Z,14.27
2023-05-09T07:34:36.783Z,14.46
2023-05-09T07:37:03.913Z,14.53
2023-05-09T07:39:30.941Z,14.58
2023-05-09T07:41:57.960Z,14.68
2023-05-09T07:44:25.083Z,14.68
2023-05-09T07:46:52.242Z,14.62
2023-05-09T07:49:19.393Z,14.67
2023-05-09T07:51:46.420Z,14.75
2023-05-09T07:54:13.736Z,14.87
2023-05-09T07:56:40.709Z,14.98
2023-05-09T07:59:07.750Z,15.12
2023-05-09T08:01:34.835Z,15.18
2023-05-09T08:04:01.979Z,15.21
2023-05-09T08:06:29.165Z,15.26
2023-05-09T08:08:56.197Z,15.37
2023-05-09T08:11:23.596Z,15.48
2023-05-09T08:13:50.658Z,15.61
2023-05-09T08:16:17.768Z,15.72
2023-05-09T08:18:44.960Z,15.88
2023-05-09T08:21:12.343Z,15.98
2023-05-09T08:23:40.728Z,15.92
2023-05-09T08:26:07.873Z,15.85
2023-05-09T08:28:34.906Z,15.82
2023-05-09T08:31:02.042Z,15.84
2023-05-09T08:33:29.158Z,15.85
2023-05-09T08:35:56.561Z,15.85
2023-05-09T08:38:24.498Z,15.83
2023-05-09T08:40:51.653Z,15.80
2023-05-09T08:43:19.404Z,15.75
2023-05-09T08:45:50.183Z,15.72
2023-05-09T08:48:17.518Z,15.74
2023-05-09T08:50:44.585Z,15.78
2023-05-09T08:53:11.969Z,15.89
2023-05-09T08:55:39.007Z,15.95
2023-05-09T08:58:06.242Z,15.92
2023-05-09T09:00:33.755Z,15.90
2023-05-09T09:03:02.180Z,15.89
2023-05-09T09:08:01.619Z,15.95
2023-05-09T09:10:29.887Z,16.13
2023-05-09T09:12:57.644Z,16.21
2023-05-09T09:15:26.352Z,16.30
2023-05-09T09:17:53.460Z,16.24
2023-05-09T09:20:20.665Z,16.14
2023-05-09T09:22:48.842Z,16.16
2023-05-09T09:25:16.880Z,16.26
2023-05-09T09:27:43.990Z,16.31
2023-05-09T09:30:13.308Z,16.23
2023-05-09T09:32:40.898Z,16.13
2023-05-09T09:35:09.160Z,16.10
2023-05-09T09:37:36.899Z,16.12
2023-05-09T09:40:05.257Z,16.05
2023-05-09T09:42:42.554Z,15.87
2023-05-09T09:45:12.078Z,15.78
2023-05-09T09:47:39.674Z,15.85
2023-05-09T09:50:14.567Z,16.12
2023-05-09T09:52:51.679Z,16.38
2023-05-09T09:55:19.404Z,16.63
2023-05-09T09:57:48.261Z,16.89
2023-05-09T10:00:16.630Z,17.08
2023-05-09T10:02:54.087Z,17.21
2023-05-09T10:05:24.005Z,17.46
2023-05-09T10:08:00.550Z,17.60
2023-05-09T10:10:28.870Z,17.60
2023-05-09T10:12:57.791Z,17.60
2023-05-09T10:15:25.392Z,17.54
2023-05-09T10:17:56.671Z,17.51
2023-05-09T10:20:24.079Z,17.59
2023-05-09T10:22:57.404Z,17.48
2023-05-09T10:25:44.215Z,17.54
2023-05-09T10:28:13.194Z,17.49
2023-05-09T10:31:03.138Z,17.27
2023-05-09T10:33:49.324Z,17.13
2023-05-09T10:36:18.309Z,17.18
2023-05-09T10:38:45.360Z,17.23
2023-05-09T10:41:12.793Z,17.30
2023-05-09T10:43:39.863Z,17.36
2023-05-09T10:46:07.092Z,17.41
2023-05-09T10:48:34.154Z,17.57
2023-05-09T10:51:01.578Z,17.61
2023-05-09T10:53:48.715Z,17.63
2023-05-09T10:56:29.208Z,17.63
2023-05-09T10:58:56.843Z,17.63
2023-05-09T11:01:31.753Z,17.67
2023-05-09T11:03:59.384Z,17.69
2023-05-09T11:06:42.148Z,17.68
2023-05-09T11:09:33.393Z,17.79
2023-05-09T11:12:08.768Z,18.10
2023-05-09T11:14:35.921Z,18.29
2023-05-09T11:17:06.064Z,18.50
2023-05-09T11:19:37.784Z,18.66
2023-05-09T11:22:34.493Z,18.80
2023-05-09T11:25:30.563Z,18.85
2023-05-09T11:28:04.974Z,18.84
2023-05-09T11:30:40.970Z,18.68
2023-05-09T11:33:24.771Z,18.85
2023-05-09T11:36:18.697Z,18.88
2023-05-09T11:38:46.988Z,18.61
2023-05-09T11:41:14.170Z,18.39
2023-05-09T11:43:42.509Z,18.22
2023-05-09T11:46:09.733Z,18.11
2023-05-09T11:48:40.604Z,18.03
2023-05-09T11:51:07.739Z,18.00
2023-05-09T11:53:34.834Z,17.81
2023-05-09T11:56:05.301Z,17.85
2023-05-09T11:58:32.440Z,18.11
2023-05-09T12:00:59.702Z,18.35
2023-05-09T12:03:27.429Z,18.41
2023-05-09T12:05:55.035Z,18.44
2023-05-09T12:08:23.270Z,18.51
2023-05-09T12:10:50.664Z,18.49
2023-05-09T12:13:19.427Z,18.47
2023-05-09T12:15:46.538Z,18.51
2023-05-09T12:18:13.637Z,18.64
2023-05-09T12:20:51.417Z,18.80
2023-05-09T12:23:19.091Z,18.83
2023-05-09T12:25:56.232Z,18.89
2023-05-09T12:28:23.545Z,19.30
2023-05-09T12:30:51.426Z,19.61
2023-05-09T12:33:18.588Z,19.65
2023-05-09T12:35:49.280Z,19.48
2023-05-09T12:38:22.628Z,19.04
2023-05-09T12:40:50.721Z,18.55
2023-05-09T12:43:17.876Z,18.18
2023-05-09T12:45:44.894Z,18.10
2023-05-09T12:48:14.265Z,18.28
2023-05-09T12:50:41.662Z,18.55
2023-05-09T12:53:08.876Z,19.00
2023-05-09T12:55:41.521Z,19.50
2023-05-09T12:58:08.675Z,19.73
2023-05-09T13:00:45.336Z,19.56
2023-05-09T13:03:30.767Z,19.17
2023-05-09T13:06:01.705Z,18.79
2023-05-09T13:08:29.029Z,18.57
2023-05-09T13:11:07.790Z,18.40
2023-05-09T13:13:41.785Z,18.26
2023-05-09T13:16:10.691Z,18.03
2023-05-09T13:18:38.805Z,17.92
2023-05-09T13:21:07.156Z,17.91
2023-05-09T13:23:34.580Z,18.00
2023-05-09T13:26:01.630Z,18.01
2023-05-09T13:28:28.644Z,18.08
2023-05-09T13:30:55.779Z,18.17
2023-05-09T13:33:26.456Z,18.12
2023-05-09T13:35:54.214Z,18.18
2023-05-09T13:38:21.253Z,18.19
2023-05-09T13:40:48.374Z,18.15
2023-05-09T13:43:15.613Z,18.03
2023-05-09T13:45:42.681Z,17.95
2023-05-09T13:48:09.770Z,17.75
2023-05-09T13:50:36.850Z,17.26
2023-05-09T13:53:03.941Z,16.83
2023-05-09T13:55:31.165Z,16.57
2023-05-09T13:57:58.168Z,16.44
2023-05-09T14:00:26.791Z,16.48
2023-05-09T14:02:59.954Z,16.64
2023-05-09T14:05:27.544Z,16.71
2023-05-09T14:07:55.186Z,16.84
2023-05-09T14:10:22.464Z,17.08
2023-05-09T14:12:49.527Z,17.14
2023-05-09T14:15:16.710Z,17.07
2023-05-09T14:17:43.849Z,17.05
2023-05-09T14:20:11.337Z,16.93
2023-05-09T14:22:38.493Z,16.67
2023-05-09T14:25:06.357Z,16.41
2023-05-09T14:27:36.998Z,16.24
2023-05-09T14:30:04.968Z,16.21
2023-05-09T14:32:32.056Z,16.38
2023-05-09T14:34:59.180Z,16.40
2023-05-09T14:37:27.230Z,16.44
2023-05-09T14:39:54.335Z,16.33
2023-05-09T14:42:21.615Z,16.16
2023-05-09T14:44:48.771Z,16.12
2023-05-09T14:47:17.130Z,16.12
2023-05-09T14:49:44.452Z,16.09
2023-05-09T14:52:11.607Z,16.09
2023-05-09T14:54:38.944Z,16.08
2023-05-09T14:57:07.640Z,16.15
2023-05-09T14:59:36.827Z,16.17
2023-05-09T15:02:04.311Z,16.15
2023-05-09T15:04:31.570Z,16.10
2023-05-09T15:06:59.275Z,16.06
2023-05-09T15:09:26.858Z,15.97
2023-05-09T15:11:55.028Z,16.02
2023-05-09T15:14:22.308Z,16.09
2023-05-09T15:16:52.421Z,16.19
2023-05-09T15:19:19.628Z,16.32
2023-05-09T15:21:46.819Z,16.36
2023-05-09T15:24:13.918Z,16.37
2023-05-09T15:26:40.934Z,16.28
2023-05-09T15:29:08.008Z,16.26
2023-05-09T15:31:35.720Z,16.24
2023-05-09T15:34:02.856Z,16.20
2023-05-09T15:36:30.335Z,16.17
2023-05-09T15:38:57.527Z,16.16
2023-05-09T15:41:24.652Z,16.07
2023-05-09T15:43:52.475Z,15.94
2023-05-09T15:46:19.550Z,15.81
2023-05-09T15:48:46.574Z,15.74
2023-05-09T15:51:14.022Z,15.60
2023-05-09T15:53:41.454Z,15.42
2023-05-09T15:56:08.688Z,15.31
2023-05-09T15:58:36.073Z,15.20
2023-05-09T16:01:06.310Z,15.05
2023-05-09T16:03:34.056Z,14.92
2023-05-09T16:06:01.261Z,14.87
2023-05-09T16:08:28.901Z,14.82
2023-05-09T16:10:55.959Z,14.78
2023-05-09T16:13:23.176Z,14.73
2023-05-09T16:15:51.180Z,14.64
2023-05-09T16:18:18.891Z,14.59
2023-05-09T16:20:46.162Z,14.55
2023-05-09T16:23:13.422Z,14.51
2023-05-09T16:25:40.412Z,14.43
2023-05-09T16:28:09.500Z,14.36
2023-05-09T16:30:37.000Z,14.28
2023-05-09T16:33:04.268Z,14.27
2023-05-09T16:35:31.506Z,14.26
2023-05-09T16:37:58.637Z,14.21
2023-05-09T16:40:25.702Z,14.18
2023-05-09T16:42:53.913Z,14.16
2023-05-09T16:45:21.123Z,14.20
2023-05-09T16:47:48.192Z,14.41
2023-05-09T16:50:15.440Z,14.57
2023-05-09T16:52:42.660Z,14.58
2023-05-09T16:55:09.812Z,14.43
2023-05-09T16:57:37.345Z,14.29
2023-05-09T17:00:08.008Z,14.12
2023-05-09T17:02:36.512Z,13.94
2023-05-09T17:05:05.371Z,13.78
2023-05-09T17:07:32.591Z,13.65
2023-05-09T17:09:59.844Z,13.51
2023-05-09T17:12:27.817Z,13.39
2023-05-09T17:14:54.881Z,13.22
2023-05-09T17:17:21.978Z,13.13
2023-05-09T17:19:49.077Z,13.02
2023-05-09T17:22:16.727Z,12.93
2023-05-09T17:24:44.196Z,12.84
2023-05-09T17:27:11.661Z,12.75
2023-05-09T17:29:38.857Z,12.65
2023-05-09T17:32:06.148Z,12.61
2023-05-09T17:34:33.909Z,12.59
2023-05-09T17:37:02.496Z,12.55
2023-05-09T17:39:29.718Z,12.55
2023-05-09T17:41:56.828Z,12.54
2023-05-09T17:44:24.266Z,12.56
2023-05-09T17:46:51.513Z,12.59
2023-05-09T17:49:19.288Z,12.62
2023-05-09T17:51:46.421Z,12.65
2023-05-09T17:54:13.589Z,12.71
2023-05-09T17:56:40.927Z,12.76
2023-05-09T17:59:08.190Z,12.77
2023-05-09T18:01:35.501Z,12.78
2023-05-09T18:04:03.054Z,12.75
2023-05-09T18:06:30.347Z,12.73
2023-05-09T18:08:57.667Z,12.71
2023-05-09T18:11:25.396Z,12.71
2023-05-09T18:13:52.644Z,12.72
2023-05-09T18:16:19.805Z,12.67
2023-05-09T18:18:47.019Z,12.60
2023-05-09T18:21:14.168Z,12.59
2023-05-09T18:23:41.545Z,12.63
2023-05-09T18:26:08.771Z,12.56
2023-05-09T18:28:41.851Z,12.54
2023-05-09T18:31:13.406Z,12.55
2023-05-09T18:33:41.959Z,12.51
2023-05-09T18:36:10.151Z,12.44
2023-05-09T18:38:39.480Z,12.40
2023-05-09T18:41:13.612Z,12.42
2023-05-09T18:43:46.201Z,12.39
2023-05-09T18:46:21.410Z,12.40
2023-05-09T18:48:51.200Z,12.39
2023-05-09T18:51:18.856Z,12.39
2023-05-09T18:53:47.465Z,12.35
2023-05-09T18:56:14.919Z,12.28
2023-05-09T18:58:46.937Z,12.24
2023-05-09T19:01:13.953Z,12.18
2023-05-09T19:03:45.564Z,12.16
2023-05-09T19:06:13.960Z,12.10
2023-05-09T19:08:43.743Z,12.06
2023-05-09T19:11:14.868Z,11.99
2023-05-09T19:13:48.622Z,11.95
2023-05-09T19:16:16.507Z,11.93
2023-05-09T19:18:45.266Z,11.88
2023-05-09T19:21:15.081Z,11.80
2023-05-09T19:23:43.029Z,11.76
2023-05-09T19:26:10.267Z,11.72
2023-05-09T19:28:37.948Z,11.73
2023-05-09T19:31:05.219Z,11.71
2023-05-09T19:33:33.777Z,11.62
2023-05-09T19:36:01.183Z,11.59
2023-05-09T19:38:28.308Z,11.53
2023-05-09T19:40:55.753Z,11.56
2023-05-09T19:43:22.980Z,11.54
2023-05-09T19:45:50.258Z,11.50
2023-05-09T19:48:17.381Z,11.53
2023-05-09T19:50:45.311Z,11.56
2023-05-09T19:53:12.461Z,11.50
2023-05-09T19:55:39.551Z,11.49
2023-05-09T19:58:06.642Z,11.45
2023-05-09T20:00:36.198Z,11.40
2023-05-09T20:03:04.336Z,11.33
2023-05-09T20:05:44.315Z,11.30
2023-05-09T20:08:12.290Z,11.28
2023-05-09T20:10:39.531Z,11.29
2023-05-09T20:13:07.032Z,11.32
2023-05-09T20:15:34.717Z,11.33
2023-05-09T20:18:03.907Z,11.31
2023-05-09T20:20:33.911Z,11.29
2023-05-09T20:23:02.144Z,11.32
2023-05-09T20:25:29.632Z,11.27
2023-05-09T20:27:56.792Z,11.24
2023-05-09T20:30:23.929Z,11.17
2023-05-09T20:32:51.267Z,11.15
2023-05-09T20:35:18.537Z,11.17
2023-05-09T20:37:48.575Z,11.18
2023-05-09T20:40:20.426Z,11.22
2023-05-09T20:42:51.348Z,11.22
2023-05-09T20:45:18.686Z,11.30
2023-05-09T20:47:45.768Z,11.31
2023-05-09T20:50:12.932Z,11.34
2023-05-09T20:52:40.373Z,11.36
2023-05-09T20:55:07.928Z,11.36
2023-05-09T20:57:34.960Z,11.39
2023-05-09T21:00:02.177Z,11.44
2023-05-09T21:02:29.242Z,11.46
2023-05-09T21:04:57.140Z,11.45
2023-05-09T21:07:24.356Z,11.50
2023-05-09T21:09:51.716Z,11.52
2023-05-09T21:12:18.976Z,11.56
2023-05-09T21:14:46.249Z,11.55
2023-05-09T21:17:13.337Z,11.55
2023-05-09T21:19:40.580Z,11.56
2023-05-09T21:22:07.770Z,11.56
2023-05-09T21:24:34.982Z,11.61
2023-05-09T21:27:02.020Z,11.64
2023-05-09T21:29:29.058Z,11.68
2023-05-09T21:31:56.058Z,11.70
2023-05-09T21:34:23.108Z,11.66
2023-05-09T21:36:50.105Z,11.70
2023-05-09T21:39:17.157Z,11.70
2023-05-09T21:41:44.213Z,11.69
2023-05-09T21:44:14.174Z,11.70
2023-05-09T21:46:41.511Z,11.72
2023-05-09T21:49:08.688Z,11.75
2023-05-09T21:51:35.774Z,11.77
2023-05-09T21:54:03.275Z,11.76
2023-05-09T21:56:30.610Z,11.76
2023-05-09T21:58:57.771Z,11.75
2023-05-09T22:01:24.898Z,11.81
2023-05-09T22:03:52.227Z,11.75
2023-05-09T22:06:19.344Z,11.69
2023-05-09T22:08:46.431Z,11.70
2023-05-09T22:11:14.930Z,11.64
2023-05-09T22:13:42.639Z,11.63
2023-05-09T22:16:09.900Z,11.56
2023-05-09T22:18:37.322Z,11.51
2023-05-09T22:21:04.555Z,11.56
2023-05-09T22:23:31.621Z,11.59
2023-05-09T22:25:58.677Z,11.63
2023-05-09T22:28:28.750Z,11.62
2023-05-09T22:30:55.791Z,11.65
2023-05-09T22:33:22.844Z,11.64
2023-05-09T22:35:49.827Z,11.63
2023-05-09T22:38:16.838Z,11.62
2023-05-09T22:40:43.868Z,11.54
2023-05-09T22:43:11.861Z,11.49
2023-05-09T22:45:39.009Z,11.45
2023-05-09T22:48:06.494Z,11.39
2023-05-09T22:50:33.600Z,11.37
2023-05-09T22:53:00.959Z,11.39
2023-05-09T22:55:28.038Z,11.38
2023-05-09T22:57:55.020Z,11.35
2023-05-09T23:00:22.226Z,11.34
2023-05-09T23:02:49.936Z,11.31
2023-05-09T23:05:17.076Z,11.31
2023-05-09T23:07:44.622Z,11.26
2023-05-09T23:10:11.705Z,11.24
2023-05-09T23:12:38.741Z,11.23
2023-05-09T23:15:07.556Z,11.26
2023-05-09T23:17:34.675Z,11.23
2023-05-09T23:20:01.815Z,11.21
2023-05-09T23:22:28.904Z,11.24
2023-05-09T23:24:55.996Z,11.19
2023-05-09T23:27:23.288Z,11.15
2023-05-09T23:29:50.309Z,11.12
2023-05-09T23:32:17.304Z,11.11
2023-05-09T23:34:44.317Z,11.05
2023-05-09T23:37:12.095Z,11.07
2023-05-09T23:39:39.113Z,11.14
2023-05-09T23:42:06.202Z,11.16
2023-05-09T23:44:33.662Z,11.17
2023-05-09T23:47:02.240Z,11.16
2023-05-09T23:49:29.290Z,11.16
2023-05-09T23:51:56.334Z,11.13
2023-05-09T23:54:24.615Z,11.19
2023-05-09T23:56:51.769Z,11.12
2023-05-09T23:59:18.698Z,11.14
